sensor_id;sensor_type;location;lat;lon;timestamp;P1;durP1;ratioP1;P2;durP2;ratioP2
67528;SDS011;54366;51.980;5.856;2024-03-25T00:00:27;6.85;;;1.65;;
67528;SDS011;54366;51.980;5.856;2024-03-25T00:02:55;5.85;;;1.42;;
67528;SDS011;54366;51.980;5.856;2024-03-25T00:05:21;7.07;;;2.03;;
67528;SDS011;54366;51.980;5.856;2024-03-25T00:07:48;6.78;;;1.92;;
67528;SDS011;54366;51.980;5.856;2024-03-25T00:10:15;7.05;;;2.13;;
67528;SDS011;54366;51.980;5.856;2024-03-25T00:12:41;3.75;;;1.35;;
67528;SDS011;54366;51.980;5.856;2024-03-25T00:15:08;9.52;;;1.67;;
67528;SDS011;54366;51.980;5.856;2024-03-25T00:17:34;7.18;;;1.75;;
67528;SDS011;54366;51.980;5.856;2024-03-25T00:20:01;9.98;;;2.00;;
67528;SDS011;54366;51.980;5.856;2024-03-25T00:22:31;6.05;;;1.60;;
67528;SDS011;54366;51.980;5.856;2024-03-25T00:24:57;5.85;;;2.00;;
67528;SDS011;54366;51.980;5.856;2024-03-25T00:27:24;5.78;;;1.70;;
67528;SDS011;54366;51.980;5.856;2024-03-25T00:29:50;7.15;;;1.85;;
67528;SDS011;54366;51.980;5.856;2024-03-25T00:32:16;4.63;;;1.58;;
67528;SDS011;54366;51.980;5.856;2024-03-25T00:34:43;6.18;;;1.60;;
67528;SDS011;54366;51.980;5.856;2024-03-25T00:37:09;6.55;;;1.50;;
67528;SDS011;54366;51.980;5.856;2024-03-25T00:39:35;6.70;;;1.98;;
67528;SDS011;54366;51.980;5.856;2024-03-25T00:42:02;7.10;;;1.88;;
67528;SDS011;54366;51.980;5.856;2024-03-25T00:44:28;4.82;;;1.60;;
67528;SDS011;54366;51.980;5.856;2024-03-25T00:46:55;7.97;;;2.00;;
67528;SDS011;54366;51.980;5.856;2024-03-25T00:49:21;4.25;;;1.20;;
67528;SDS011;54366;51.980;5.856;2024-03-25T00:51:48;5.75;;;1.38;;
67528;SDS011;54366;51.980;5.856;2024-03-25T00:54:14;6.13;;;1.67;;
67528;SDS011;54366;51.980;5.856;2024-03-25T00:56:40;5.30;;;1.63;;
67528;SDS011;54366;51.980;5.856;2024-03-25T00:59:07;7.60;;;1.75;;
67528;SDS011;54366;51.980;5.856;2024-03-25T01:01:33;5.53;;;1.40;;
67528;SDS011;54366;51.980;5.856;2024-03-25T01:04:04;4.85;;;1.45;;
67528;SDS011;54366;51.980;5.856;2024-03-25T01:06:30;6.25;;;1.52;;
67528;SDS011;54366;51.980;5.856;2024-03-25T01:08:56;5.05;;;1.65;;
67528;SDS011;54366;51.980;5.856;2024-03-25T01:11:23;4.35;;;1.10;;
67528;SDS011;54366;51.980;5.856;2024-03-25T01:13:49;4.68;;;1.48;;
67528;SDS011;54366;51.980;5.856;2024-03-25T01:16:15;5.13;;;1.60;;
67528;SDS011;54366;51.980;5.856;2024-03-25T01:18:42;5.35;;;1.30;;
67528;SDS011;54366;51.980;5.856;2024-03-25T01:21:08;8.20;;;1.30;;
67528;SDS011;54366;51.980;5.856;2024-03-25T01:23:35;6.00;;;1.38;;
67528;SDS011;54366;51.980;5.856;2024-03-25T01:26:01;6.45;;;1.60;;
67528;SDS011;54366;51.980;5.856;2024-03-25T01:28:27;6.82;;;1.50;;
67528;SDS011;54366;51.980;5.856;2024-03-25T01:30:54;7.57;;;1.88;;
67528;SDS011;54366;51.980;5.856;2024-03-25T01:33:20;6.72;;;1.67;;
67528;SDS011;54366;51.980;5.856;2024-03-25T01:35:46;8.10;;;1.92;;
67528;SDS011;54366;51.980;5.856;2024-03-25T01:38:12;6.47;;;1.50;;
67528;SDS011;54366;51.980;5.856;2024-03-25T01:40:39;6.72;;;2.17;;
67528;SDS011;54366;51.980;5.856;2024-03-25T01:43:05;9.43;;;2.35;;
67528;SDS011;54366;51.980;5.856;2024-03-25T01:45:32;7.85;;;1.98;;
67528;SDS011;54366;51.980;5.856;2024-03-25T01:48:01;6.43;;;1.85;;
67528;SDS011;54366;51.980;5.856;2024-03-25T01:50:30;7.03;;;1.75;;
67528;SDS011;54366;51.980;5.856;2024-03-25T01:53:00;8.25;;;2.00;;
67528;SDS011;54366;51.980;5.856;2024-03-25T01:55:28;9.05;;;2.38;;
67528;SDS011;54366;51.980;5.856;2024-03-25T01:57:56;7.32;;;2.03;;
67528;SDS011;54366;51.980;5.856;2024-03-25T02:00:22;5.18;;;2.15;;
67528;SDS011;54366;51.980;5.856;2024-03-25T02:02:51;6.65;;;2.03;;
67528;SDS011;54366;51.980;5.856;2024-03-25T02:05:18;8.88;;;2.25;;
67528;SDS011;54366;51.980;5.856;2024-03-25T02:07:45;6.97;;;2.00;;
67528;SDS011;54366;51.980;5.856;2024-03-25T02:10:12;8.95;;;2.33;;
67528;SDS011;54366;51.980;5.856;2024-03-25T02:12:42;6.03;;;2.28;;
67528;SDS011;54366;51.980;5.856;2024-03-25T02:15:09;6.55;;;1.90;;
67528;SDS011;54366;51.980;5.856;2024-03-25T02:17:36;6.75;;;2.00;;
67528;SDS011;54366;51.980;5.856;2024-03-25T02:20:03;7.25;;;2.40;;
67528;SDS011;54366;51.980;5.856;2024-03-25T02:22:36;6.95;;;2.30;;
67528;SDS011;54366;51.980;5.856;2024-03-25T02:25:07;6.35;;;2.38;;
67528;SDS011;54366;51.980;5.856;2024-03-25T02:27:37;8.45;;;2.25;;
67528;SDS011;54366;51.980;5.856;2024-03-25T02:30:07;7.50;;;2.15;;
67528;SDS011;54366;51.980;5.856;2024-03-25T02:32:35;8.75;;;1.80;;
67528;SDS011;54366;51.980;5.856;2024-03-25T02:35:05;9.57;;;2.42;;
67528;SDS011;54366;51.980;5.856;2024-03-25T02:40:02;7.78;;;2.30;;
67528;SDS011;54366;51.980;5.856;2024-03-25T02:42:31;9.10;;;2.05;;
67528;SDS011;54366;51.980;5.856;2024-03-25T02:44:58;8.13;;;2.25;;
67528;SDS011;54366;51.980;5.856;2024-03-25T02:47:25;5.72;;;2.03;;
67528;SDS011;54366;51.980;5.856;2024-03-25T02:49:51;8.25;;;2.40;;
67528;SDS011;54366;51.980;5.856;2024-03-25T02:52:18;8.73;;;2.38;;
67528;SDS011;54366;51.980;5.856;2024-03-25T02:54:45;9.63;;;2.40;;
67528;SDS011;54366;51.980;5.856;2024-03-25T02:57:11;7.22;;;2.00;;
67528;SDS011;54366;51.980;5.856;2024-03-25T02:59:38;7.85;;;2.22;;
67528;SDS011;54366;51.980;5.856;2024-03-25T03:02:04;10.23;;;2.22;;
67528;SDS011;54366;51.980;5.856;2024-03-25T03:04:30;6.82;;;2.10;;
67528;SDS011;54366;51.980;5.856;2024-03-25T03:06:56;5.85;;;1.55;;
67528;SDS011;54366;51.980;5.856;2024-03-25T03:09:23;5.72;;;1.95;;
67528;SDS011;54366;51.980;5.856;2024-03-25T03:11:49;6.50;;;1.98;;
67528;SDS011;54366;51.980;5.856;2024-03-25T03:14:15;5.07;;;1.60;;
67528;SDS011;54366;51.980;5.856;2024-03-25T03:16:42;9.25;;;2.42;;
67528;SDS011;54366;51.980;5.856;2024-03-25T03:19:08;8.57;;;1.83;;
67528;SDS011;54366;51.980;5.856;2024-03-25T03:21:35;7.72;;;2.20;;
67528;SDS011;54366;51.980;5.856;2024-03-25T03:24:02;7.32;;;2.25;;
67528;SDS011;54366;51.980;5.856;2024-03-25T03:26:31;7.40;;;2.13;;
67528;SDS011;54366;51.980;5.856;2024-03-25T03:28:58;6.10;;;2.33;;
67528;SDS011;54366;51.980;5.856;2024-03-25T03:31:25;8.23;;;2.33;;
67528;SDS011;54366;51.980;5.856;2024-03-25T03:33:52;8.02;;;2.42;;
67528;SDS011;54366;51.980;5.856;2024-03-25T03:36:19;7.22;;;2.17;;
67528;SDS011;54366;51.980;5.856;2024-03-25T03:38:46;6.30;;;2.20;;
67528;SDS011;54366;51.980;5.856;2024-03-25T03:41:13;9.13;;;2.67;;
67528;SDS011;54366;51.980;5.856;2024-03-25T03:43:39;7.68;;;2.03;;
67528;SDS011;54366;51.980;5.856;2024-03-25T03:46:05;8.90;;;2.40;;
67528;SDS011;54366;51.980;5.856;2024-03-25T03:48:31;5.55;;;2.40;;
67528;SDS011;54366;51.980;5.856;2024-03-25T03:50:58;10.02;;;2.63;;
67528;SDS011;54366;51.980;5.856;2024-03-25T03:53:24;7.78;;;2.60;;
67528;SDS011;54366;51.980;5.856;2024-03-25T03:55:54;9.50;;;2.55;;
67528;SDS011;54366;51.980;5.856;2024-03-25T03:58:21;7.50;;;2.83;;
67528;SDS011;54366;51.980;5.856;2024-03-25T04:00:48;8.57;;;2.38;;
67528;SDS011;54366;51.980;5.856;2024-03-25T04:03:14;8.32;;;2.80;;
67528;SDS011;54366;51.980;5.856;2024-03-25T04:05:40;9.02;;;2.63;;
67528;SDS011;54366;51.980;5.856;2024-03-25T04:08:07;7.13;;;2.17;;
67528;SDS011;54366;51.980;5.856;2024-03-25T04:10:34;6.70;;;2.33;;
67528;SDS011;54366;51.980;5.856;2024-03-25T04:13:01;7.82;;;2.60;;
67528;SDS011;54366;51.980;5.856;2024-03-25T04:15:35;7.90;;;2.60;;
67528;SDS011;54366;51.980;5.856;2024-03-25T04:18:02;6.07;;;2.13;;
67528;SDS011;54366;51.980;5.856;2024-03-25T04:20:29;7.70;;;2.40;;
67528;SDS011;54366;51.980;5.856;2024-03-25T04:23:01;8.45;;;2.67;;
67528;SDS011;54366;51.980;5.856;2024-03-25T04:25:28;7.60;;;2.33;;
67528;SDS011;54366;51.980;5.856;2024-03-25T04:27:54;3.97;;;1.77;;
67528;SDS011;54366;51.980;5.856;2024-03-25T04:30:20;7.70;;;2.40;;
67528;SDS011;54366;51.980;5.856;2024-03-25T04:32:47;7.20;;;2.50;;
67528;SDS011;54366;51.980;5.856;2024-03-25T04:35:13;6.53;;;2.17;;
67528;SDS011;54366;51.980;5.856;2024-03-25T04:37:39;7.15;;;2.33;;
67528;SDS011;54366;51.980;5.856;2024-03-25T04:40:07;6.28;;;2.22;;
67528;SDS011;54366;51.980;5.856;2024-03-25T04:42:34;4.28;;;1.67;;
67528;SDS011;54366;51.980;5.856;2024-03-25T04:45:00;6.65;;;2.15;;
67528;SDS011;54366;51.980;5.856;2024-03-25T04:47:29;5.70;;;2.10;;
67528;SDS011;54366;51.980;5.856;2024-03-25T04:49:57;5.10;;;1.73;;
67528;SDS011;54366;51.980;5.856;2024-03-25T04:52:24;5.70;;;2.22;;
67528;SDS011;54366;51.980;5.856;2024-03-25T04:54:51;7.03;;;2.97;;
67528;SDS011;54366;51.980;5.856;2024-03-25T04:57:17;7.72;;;2.50;;
67528;SDS011;54366;51.980;5.856;2024-03-25T04:59:44;6.97;;;2.60;;
67528;SDS011;54366;51.980;5.856;2024-03-25T05:02:11;5.15;;;2.22;;
67528;SDS011;54366;51.980;5.856;2024-03-25T05:04:37;6.65;;;2.20;;
67528;SDS011;54366;51.980;5.856;2024-03-25T05:07:04;6.68;;;2.90;;
67528;SDS011;54366;51.980;5.856;2024-03-25T05:09:30;6.38;;;2.72;;
67528;SDS011;54366;51.980;5.856;2024-03-25T05:11:56;6.40;;;2.47;;
67528;SDS011;54366;51.980;5.856;2024-03-25T05:14:23;7.80;;;3.00;;
67528;SDS011;54366;51.980;5.856;2024-03-25T05:16:49;8.27;;;2.95;;
67528;SDS011;54366;51.980;5.856;2024-03-25T05:19:18;7.82;;;3.33;;
67528;SDS011;54366;51.980;5.856;2024-03-25T05:21:44;7.05;;;3.42;;
67528;SDS011;54366;51.980;5.856;2024-03-25T05:24:11;6.32;;;3.40;;
67528;SDS011;54366;51.980;5.856;2024-03-25T05:26:37;7.22;;;3.28;;
67528;SDS011;54366;51.980;5.856;2024-03-25T05:29:03;6.43;;;3.58;;
67528;SDS011;54366;51.980;5.856;2024-03-25T05:31:29;5.85;;;2.90;;
67528;SDS011;54366;51.980;5.856;2024-03-25T05:33:57;5.63;;;3.40;;
67528;SDS011;54366;51.980;5.856;2024-03-25T05:36:27;8.43;;;3.97;;
67528;SDS011;54366;51.980;5.856;2024-03-25T05:38:53;6.55;;;3.50;;
67528;SDS011;54366;51.980;5.856;2024-03-25T05:41:20;7.10;;;3.38;;
67528;SDS011;54366;51.980;5.856;2024-03-25T05:43:46;5.50;;;2.85;;
67528;SDS011;54366;51.980;5.856;2024-03-25T05:46:12;9.40;;;3.40;;
67528;SDS011;54366;51.980;5.856;2024-03-25T05:48:39;7.00;;;2.90;;
67528;SDS011;54366;51.980;5.856;2024-03-25T05:51:05;6.80;;;2.97;;
67528;SDS011;54366;51.980;5.856;2024-03-25T05:53:35;8.98;;;3.63;;
67528;SDS011;54366;51.980;5.856;2024-03-25T05:56:03;6.47;;;3.33;;
67528;SDS011;54366;51.980;5.856;2024-03-25T05:58:30;6.15;;;3.00;;
67528;SDS011;54366;51.980;5.856;2024-03-25T06:00:56;7.43;;;2.70;;
67528;SDS011;54366;51.980;5.856;2024-03-25T06:03:23;8.45;;;3.35;;
67528;SDS011;54366;51.980;5.856;2024-03-25T06:05:49;7.40;;;3.13;;
67528;SDS011;54366;51.980;5.856;2024-03-25T06:08:15;9.73;;;3.22;;
67528;SDS011;54366;51.980;5.856;2024-03-25T06:10:47;8.55;;;3.00;;
67528;SDS011;54366;51.980;5.856;2024-03-25T06:13:13;8.25;;;3.42;;
67528;SDS011;54366;51.980;5.856;2024-03-25T06:15:39;9.07;;;3.28;;
67528;SDS011;54366;51.980;5.856;2024-03-25T06:18:06;10.02;;;3.20;;
67528;SDS011;54366;51.980;5.856;2024-03-25T06:20:32;5.90;;;2.80;;
67528;SDS011;54366;51.980;5.856;2024-03-25T06:22:58;7.53;;;3.33;;
67528;SDS011;54366;51.980;5.856;2024-03-25T06:25:24;8.40;;;3.13;;
67528;SDS011;54366;51.980;5.856;2024-03-25T06:27:56;7.07;;;3.30;;
67528;SDS011;54366;51.980;5.856;2024-03-25T06:30:23;6.07;;;3.08;;
67528;SDS011;54366;51.980;5.856;2024-03-25T06:35:52;7.43;;;2.93;;
67528;SDS011;54366;51.980;5.856;2024-03-25T06:38:18;7.72;;;2.65;;
67528;SDS011;54366;51.980;5.856;2024-03-25T06:40:45;7.82;;;2.88;;
67528;SDS011;54366;51.980;5.856;2024-03-25T06:43:11;6.55;;;3.05;;
67528;SDS011;54366;51.980;5.856;2024-03-25T06:45:38;6.93;;;2.88;;
67528;SDS011;54366;51.980;5.856;2024-03-25T06:48:05;7.50;;;2.90;;
67528;SDS011;54366;51.980;5.856;2024-03-25T06:50:32;6.57;;;2.78;;
67528;SDS011;54366;51.980;5.856;2024-03-25T06:52:58;10.00;;;3.08;;
67528;SDS011;54366;51.980;5.856;2024-03-25T06:55:24;5.72;;;2.42;;
67528;SDS011;54366;51.980;5.856;2024-03-25T06:57:54;6.57;;;2.50;;
67528;SDS011;54366;51.980;5.856;2024-03-25T07:00:20;7.75;;;3.10;;
67528;SDS011;54366;51.980;5.856;2024-03-25T07:02:48;8.68;;;3.15;;
67528;SDS011;54366;51.980;5.856;2024-03-25T07:05:14;7.70;;;3.10;;
67528;SDS011;54366;51.980;5.856;2024-03-25T07:07:41;8.60;;;2.83;;
67528;SDS011;54366;51.980;5.856;2024-03-25T07:10:07;7.50;;;3.42;;
67528;SDS011;54366;51.980;5.856;2024-03-25T07:12:33;9.48;;;3.20;;
67528;SDS011;54366;51.980;5.856;2024-03-25T07:15:00;9.00;;;2.70;;
67528;SDS011;54366;51.980;5.856;2024-03-25T07:17:26;11.15;;;3.45;;
67528;SDS011;54366;51.980;5.856;2024-03-25T07:19:52;9.00;;;3.33;;
67528;SDS011;54366;51.980;5.856;2024-03-25T07:22:19;6.95;;;3.20;;
67528;SDS011;54366;51.980;5.856;2024-03-25T07:24:45;12.55;;;3.67;;
67528;SDS011;54366;51.980;5.856;2024-03-25T07:27:11;7.03;;;2.42;;
67528;SDS011;54366;51.980;5.856;2024-03-25T07:29:38;11.77;;;3.35;;
67528;SDS011;54366;51.980;5.856;2024-03-25T07:32:04;7.90;;;3.00;;
67528;SDS011;54366;51.980;5.856;2024-03-25T07:34:31;9.18;;;3.47;;
67528;SDS011;54366;51.980;5.856;2024-03-25T07:36:57;15.55;;;3.75;;
67528;SDS011;54366;51.980;5.856;2024-03-25T07:39:23;9.13;;;3.22;;
67528;SDS011;54366;51.980;5.856;2024-03-25T07:41:50;12.88;;;3.60;;
67528;SDS011;54366;51.980;5.856;2024-03-25T07:44:16;10.07;;;3.88;;
67528;SDS011;54366;51.980;5.856;2024-03-25T07:46:42;11.82;;;3.92;;
67528;SDS011;54366;51.980;5.856;2024-03-25T07:49:09;15.15;;;4.35;;
67528;SDS011;54366;51.980;5.856;2024-03-25T07:51:35;8.55;;;3.38;;
67528;SDS011;54366;51.980;5.856;2024-03-25T07:54:01;9.65;;;3.53;;
67528;SDS011;54366;51.980;5.856;2024-03-25T07:56:29;8.88;;;3.60;;
67528;SDS011;54366;51.980;5.856;2024-03-25T07:58:58;12.48;;;4.30;;
67528;SDS011;54366;51.980;5.856;2024-03-25T08:01:25;11.57;;;4.00;;
67528;SDS011;54366;51.980;5.856;2024-03-25T08:03:51;11.15;;;4.07;;
67528;SDS011;54366;51.980;5.856;2024-03-25T08:06:17;12.02;;;4.30;;
67528;SDS011;54366;51.980;5.856;2024-03-25T08:08:47;12.95;;;4.85;;
67528;SDS011;54366;51.980;5.856;2024-03-25T08:11:13;11.45;;;3.80;;
67528;SDS011;54366;51.980;5.856;2024-03-25T08:13:39;12.52;;;4.15;;
67528;SDS011;54366;51.980;5.856;2024-03-25T08:16:06;11.18;;;3.83;;
67528;SDS011;54366;51.980;5.856;2024-03-25T08:18:32;12.43;;;4.22;;
67528;SDS011;54366;51.980;5.856;2024-03-25T08:20:58;15.73;;;5.13;;
67528;SDS011;54366;51.980;5.856;2024-03-25T08:23:25;11.88;;;4.30;;
67528;SDS011;54366;51.980;5.856;2024-03-25T08:25:51;13.50;;;4.25;;
67528;SDS011;54366;51.980;5.856;2024-03-25T08:28:17;13.23;;;4.47;;
67528;SDS011;54366;51.980;5.856;2024-03-25T08:30:44;14.32;;;4.63;;
67528;SDS011;54366;51.980;5.856;2024-03-25T08:33:10;12.07;;;4.43;;
67528;SDS011;54366;51.980;5.856;2024-03-25T08:35:37;12.02;;;4.90;;
67528;SDS011;54366;51.980;5.856;2024-03-25T08:38:04;11.15;;;3.80;;
67528;SDS011;54366;51.980;5.856;2024-03-25T08:40:30;12.90;;;4.15;;
67528;SDS011;54366;51.980;5.856;2024-03-25T08:42:56;9.13;;;3.63;;
67528;SDS011;54366;51.980;5.856;2024-03-25T08:45:23;9.50;;;3.80;;
67528;SDS011;54366;51.980;5.856;2024-03-25T08:47:49;10.38;;;3.75;;
67528;SDS011;54366;51.980;5.856;2024-03-25T08:50:16;15.32;;;4.28;;
67528;SDS011;54366;51.980;5.856;2024-03-25T08:52:42;8.73;;;3.30;;
67528;SDS011;54366;51.980;5.856;2024-03-25T08:55:09;8.27;;;3.22;;
67528;SDS011;54366;51.980;5.856;2024-03-25T08:57:35;10.18;;;3.55;;
67528;SDS011;54366;51.980;5.856;2024-03-25T09:00:02;11.38;;;3.85;;
67528;SDS011;54366;51.980;5.856;2024-03-25T09:02:29;10.63;;;3.05;;
67528;SDS011;54366;51.980;5.856;2024-03-25T09:04:56;7.13;;;2.47;;
67528;SDS011;54366;51.980;5.856;2024-03-25T09:07:22;7.78;;;2.72;;
67528;SDS011;54366;51.980;5.856;2024-03-25T09:09:48;7.93;;;3.05;;
67528;SDS011;54366;51.980;5.856;2024-03-25T09:12:33;12.27;;;3.58;;
67528;SDS011;54366;51.980;5.856;2024-03-25T09:14:59;9.38;;;3.72;;
67528;SDS011;54366;51.980;5.856;2024-03-25T09:17:25;10.35;;;4.32;;
67528;SDS011;54366;51.980;5.856;2024-03-25T09:19:52;11.13;;;3.95;;
67528;SDS011;54366;51.980;5.856;2024-03-25T09:22:18;13.38;;;4.50;;
67528;SDS011;54366;51.980;5.856;2024-03-25T09:24:44;9.52;;;3.80;;
67528;SDS011;54366;51.980;5.856;2024-03-25T09:27:11;12.35;;;4.88;;
67528;SDS011;54366;51.980;5.856;2024-03-25T09:29:37;12.27;;;5.00;;
67528;SDS011;54366;51.980;5.856;2024-03-25T09:32:03;8.98;;;3.92;;
67528;SDS011;54366;51.980;5.856;2024-03-25T09:34:30;16.50;;;4.32;;
67528;SDS011;54366;51.980;5.856;2024-03-25T09:36:56;12.35;;;4.35;;
67528;SDS011;54366;51.980;5.856;2024-03-25T09:39:23;9.40;;;3.70;;
67528;SDS011;54366;51.980;5.856;2024-03-25T09:41:49;11.52;;;3.95;;
67528;SDS011;54366;51.980;5.856;2024-03-25T09:44:22;10.80;;;4.20;;
67528;SDS011;54366;51.980;5.856;2024-03-25T09:46:51;7.78;;;3.90;;
67528;SDS011;54366;51.980;5.856;2024-03-25T09:49:17;10.05;;;3.88;;
67528;SDS011;54366;51.980;5.856;2024-03-25T09:51:46;6.97;;;3.08;;
67528;SDS011;54366;51.980;5.856;2024-03-25T09:54:13;10.07;;;3.70;;
67528;SDS011;54366;51.980;5.856;2024-03-25T09:56:39;7.72;;;3.42;;
67528;SDS011;54366;51.980;5.856;2024-03-25T09:59:06;8.65;;;3.42;;
67528;SDS011;54366;51.980;5.856;2024-03-25T10:01:33;7.00;;;3.22;;
67528;SDS011;54366;51.980;5.856;2024-03-25T10:03:59;8.95;;;3.20;;
67528;SDS011;54366;51.980;5.856;2024-03-25T10:06:25;7.15;;;2.65;;
67528;SDS011;54366;51.980;5.856;2024-03-25T10:08:54;8.98;;;2.97;;
67528;SDS011;54366;51.980;5.856;2024-03-25T10:11:23;5.03;;;1.85;;
67528;SDS011;54366;51.980;5.856;2024-03-25T10:13:49;8.00;;;3.10;;
67528;SDS011;54366;51.980;5.856;2024-03-25T10:16:15;6.63;;;2.72;;
67528;SDS011;54366;51.980;5.856;2024-03-25T10:18:42;6.70;;;2.47;;
67528;SDS011;54366;51.980;5.856;2024-03-25T10:21:11;6.13;;;2.78;;
67528;SDS011;54366;51.980;5.856;2024-03-25T10:23:39;4.80;;;1.95;;
67528;SDS011;54366;51.980;5.856;2024-03-25T10:26:07;8.23;;;2.05;;
67528;SDS011;54366;51.980;5.856;2024-03-25T10:28:34;4.75;;;1.83;;
67528;SDS011;54366;51.980;5.856;2024-03-25T10:31:04;9.38;;;3.10;;
67528;SDS011;54366;51.980;5.856;2024-03-25T10:33:31;8.00;;;2.85;;
67528;SDS011;54366;51.980;5.856;2024-03-25T10:35:57;5.65;;;2.00;;
67528;SDS011;54366;51.980;5.856;2024-03-25T10:38:27;5.25;;;1.90;;
67528;SDS011;54366;51.980;5.856;2024-03-25T10:40:54;5.45;;;1.60;;
67528;SDS011;54366;51.980;5.856;2024-03-25T10:43:22;6.28;;;2.10;;
67528;SDS011;54366;51.980;5.856;2024-03-25T10:45:52;6.35;;;2.10;;
67528;SDS011;54366;51.980;5.856;2024-03-25T10:48:29;5.35;;;2.00;;
67528;SDS011;54366;51.980;5.856;2024-03-25T10:51:01;8.40;;;2.40;;
67528;SDS011;54366;51.980;5.856;2024-03-25T10:53:29;8.40;;;2.63;;
67528;SDS011;54366;51.980;5.856;2024-03-25T10:55:57;6.40;;;2.35;;
67528;SDS011;54366;51.980;5.856;2024-03-25T10:58:26;5.72;;;2.30;;
67528;SDS011;54366;51.980;5.856;2024-03-25T11:00:54;5.82;;;1.88;;
67528;SDS011;54366;51.980;5.856;2024-03-25T11:03:22;4.32;;;1.80;;
67528;SDS011;54366;51.980;5.856;2024-03-25T11:05:51;4.75;;;1.90;;
67528;SDS011;54366;51.980;5.856;2024-03-25T11:08:17;6.28;;;2.05;;
67528;SDS011;54366;51.980;5.856;2024-03-25T11:10:44;5.72;;;1.80;;
67528;SDS011;54366;51.980;5.856;2024-03-25T11:13:16;7.03;;;2.33;;
67528;SDS011;54366;51.980;5.856;2024-03-25T11:15:44;5.40;;;2.08;;
67528;SDS011;54366;51.980;5.856;2024-03-25T11:18:15;5.10;;;2.15;;
67528;SDS011;54366;51.980;5.856;2024-03-25T11:20:42;4.03;;;1.60;;
67528;SDS011;54366;51.980;5.856;2024-03-25T11:23:09;5.05;;;1.73;;
67528;SDS011;54366;51.980;5.856;2024-03-25T11:25:40;4.65;;;1.92;;
67528;SDS011;54366;51.980;5.856;2024-03-25T11:28:10;5.38;;;2.10;;
67528;SDS011;54366;51.980;5.856;2024-03-25T11:30:37;4.18;;;2.15;;
67528;SDS011;54366;51.980;5.856;2024-03-25T11:33:07;5.50;;;2.17;;
67528;SDS011;54366;51.980;5.856;2024-03-25T11:35:37;4.25;;;1.83;;
67528;SDS011;54366;51.980;5.856;2024-03-25T11:38:03;5.07;;;2.15;;
67528;SDS011;54366;51.980;5.856;2024-03-25T11:40:30;6.13;;;2.10;;
67528;SDS011;54366;51.980;5.856;2024-03-25T11:42:56;3.90;;;1.63;;
67528;SDS011;54366;51.980;5.856;2024-03-25T11:45:24;5.00;;;1.95;;
67528;SDS011;54366;51.980;5.856;2024-03-25T11:47:50;4.13;;;1.95;;
67528;SDS011;54366;51.980;5.856;2024-03-25T11:50:18;6.78;;;2.10;;
67528;SDS011;54366;51.980;5.856;2024-03-25T11:52:45;7.07;;;2.58;;
67528;SDS011;54366;51.980;5.856;2024-03-25T11:55:16;7.57;;;3.10;;
67528;SDS011;54366;51.980;5.856;2024-03-25T11:57:43;5.53;;;2.22;;
67528;SDS011;54366;51.980;5.856;2024-03-25T12:00:09;6.20;;;2.38;;
67528;SDS011;54366;51.980;5.856;2024-03-25T12:05:13;5.60;;;2.20;;
67528;SDS011;54366;51.980;5.856;2024-03-25T12:07:39;6.07;;;2.22;;
67528;SDS011;54366;51.980;5.856;2024-03-25T12:10:06;5.57;;;2.40;;
67528;SDS011;54366;51.980;5.856;2024-03-25T12:12:51;6.60;;;2.90;;
67528;SDS011;54366;51.980;5.856;2024-03-25T12:15:20;4.32;;;2.30;;
67528;SDS011;54366;51.980;5.856;2024-03-25T12:17:46;5.25;;;2.00;;
67528;SDS011;54366;51.980;5.856;2024-03-25T12:20:13;3.15;;;1.88;;
67528;SDS011;54366;51.980;5.856;2024-03-25T12:22:41;6.85;;;2.85;;
67528;SDS011;54366;51.980;5.856;2024-03-25T12:25:08;5.82;;;2.25;;
67528;SDS011;54366;51.980;5.856;2024-03-25T12:27:36;4.88;;;2.22;;
67528;SDS011;54366;51.980;5.856;2024-03-25T12:30:07;4.88;;;2.00;;
67528;SDS011;54366;51.980;5.856;2024-03-25T12:32:43;6.28;;;2.60;;
67528;SDS011;54366;51.980;5.856;2024-03-25T12:35:11;5.88;;;2.03;;
67528;SDS011;54366;51.980;5.856;2024-03-25T12:37:42;5.47;;;2.22;;
67528;SDS011;54366;51.980;5.856;2024-03-25T12:40:10;6.22;;;2.20;;
67528;SDS011;54366;51.980;5.856;2024-03-25T12:42:38;3.58;;;2.17;;
67528;SDS011;54366;51.980;5.856;2024-03-25T12:45:05;3.45;;;1.77;;
67528;SDS011;54366;51.980;5.856;2024-03-25T12:47:35;4.20;;;2.33;;
67528;SDS011;54366;51.980;5.856;2024-03-25T12:50:01;6.78;;;2.08;;
67528;SDS011;54366;51.980;5.856;2024-03-25T12:52:27;4.03;;;1.98;;
67528;SDS011;54366;51.980;5.856;2024-03-25T12:54:54;4.95;;;2.05;;
67528;SDS011;54366;51.980;5.856;2024-03-25T12:57:20;5.20;;;1.98;;
67528;SDS011;54366;51.980;5.856;2024-03-25T12:59:46;4.20;;;2.10;;
67528;SDS011;54366;51.980;5.856;2024-03-25T13:02:13;4.95;;;2.28;;
67528;SDS011;54366;51.980;5.856;2024-03-25T13:04:40;4.00;;;1.90;;
67528;SDS011;54366;51.980;5.856;2024-03-25T13:07:09;3.67;;;2.10;;
67528;SDS011;54366;51.980;5.856;2024-03-25T13:09:36;4.70;;;2.30;;
67528;SDS011;54366;51.980;5.856;2024-03-25T13:12:02;5.00;;;2.20;;
67528;SDS011;54366;51.980;5.856;2024-03-25T13:14:29;4.47;;;2.45;;
67528;SDS011;54366;51.980;5.856;2024-03-25T13:16:56;2.35;;;1.45;;
67528;SDS011;54366;51.980;5.856;2024-03-25T13:19:22;4.80;;;1.80;;
67528;SDS011;54366;51.980;5.856;2024-03-25T13:21:48;3.20;;;1.70;;
67528;SDS011;54366;51.980;5.856;2024-03-25T13:24:15;3.83;;;1.83;;
67528;SDS011;54366;51.980;5.856;2024-03-25T13:26:41;3.30;;;1.88;;
67528;SDS011;54366;51.980;5.856;2024-03-25T13:29:07;3.30;;;1.88;;
67528;SDS011;54366;51.980;5.856;2024-03-25T13:31:34;3.15;;;1.80;;
67528;SDS011;54366;51.980;5.856;2024-03-25T13:34:00;4.20;;;1.80;;
67528;SDS011;54366;51.980;5.856;2024-03-25T13:36:26;3.75;;;1.58;;
67528;SDS011;54366;51.980;5.856;2024-03-25T13:38:52;4.80;;;1.70;;
67528;SDS011;54366;51.980;5.856;2024-03-25T13:41:37;3.00;;;1.58;;
67528;SDS011;54366;51.980;5.856;2024-03-25T13:46:29;3.83;;;1.75;;
67528;SDS011;54366;51.980;5.856;2024-03-25T13:48:56;2.20;;;0.95;;
67528;SDS011;54366;51.980;5.856;2024-03-25T13:51:22;2.97;;;1.48;;
67528;SDS011;54366;51.980;5.856;2024-03-25T13:53:48;2.35;;;1.02;;
67528;SDS011;54366;51.980;5.856;2024-03-25T13:56:15;1.95;;;1.45;;
67528;SDS011;54366;51.980;5.856;2024-03-25T13:58:41;2.15;;;1.20;;
67528;SDS011;54366;51.980;5.856;2024-03-25T14:01:07;2.42;;;1.45;;
67528;SDS011;54366;51.980;5.856;2024-03-25T14:03:35;2.97;;;1.60;;
67528;SDS011;54366;51.980;5.856;2024-03-25T14:06:01;2.03;;;1.30;;
67528;SDS011;54366;51.980;5.856;2024-03-25T14:08:28;2.45;;;1.23;;
67528;SDS011;54366;51.980;5.856;2024-03-25T14:11:01;2.67;;;1.42;;
67528;SDS011;54366;51.980;5.856;2024-03-25T14:13:28;1.50;;;1.20;;
67528;SDS011;54366;51.980;5.856;2024-03-25T14:15:54;3.33;;;1.40;;
67528;SDS011;54366;51.980;5.856;2024-03-25T14:18:21;4.25;;;1.67;;
67528;SDS011;54366;51.980;5.856;2024-03-25T14:20:47;3.97;;;1.60;;
67528;SDS011;54366;51.980;5.856;2024-03-25T14:23:14;4.32;;;2.00;;
67528;SDS011;54366;51.980;5.856;2024-03-25T14:25:41;2.88;;;1.35;;
67528;SDS011;54366;51.980;5.856;2024-03-25T14:28:07;3.08;;;1.55;;
67528;SDS011;54366;51.980;5.856;2024-03-25T14:30:33;2.85;;;1.48;;
67528;SDS011;54366;51.980;5.856;2024-03-25T14:33:00;2.33;;;0.90;;
67528;SDS011;54366;51.980;5.856;2024-03-25T14:35:26;3.53;;;1.42;;
67528;SDS011;54366;51.980;5.856;2024-03-25T14:37:52;2.40;;;1.30;;
67528;SDS011;54366;51.980;5.856;2024-03-25T14:40:18;4.80;;;1.80;;
67528;SDS011;54366;51.980;5.856;2024-03-25T14:42:45;3.42;;;1.45;;
67528;SDS011;54366;51.980;5.856;2024-03-25T14:45:11;3.72;;;1.75;;
67528;SDS011;54366;51.980;5.856;2024-03-25T14:47:37;3.03;;;1.17;;
67528;SDS011;54366;51.980;5.856;2024-03-25T14:50:04;4.82;;;1.70;;
67528;SDS011;54366;51.980;5.856;2024-03-25T14:52:33;3.75;;;1.80;;
67528;SDS011;54366;51.980;5.856;2024-03-25T14:54:59;2.58;;;1.17;;